createdAt,value
2023-02-15T00:02:26.749Z,28.26
2023-02-15T00:04:58.541Z,27.47
2023-02-15T00:07:29.891Z,27.56
2023-02-15T00:10:01.027Z,28.54
2023-02-15T00:12:33.818Z,28.64
2023-02-15T00:15:04.856Z,28.42
2023-02-15T00:17:36.038Z,28.72
2023-02-15T00:20:08.316Z,28.72
2023-02-15T00:22:39.938Z,28.16
2023-02-15T00:25:10.922Z,28.93
2023-02-15T00:27:42.062Z,28.40
2023-02-15T00:30:13.558Z,28.12
2023-02-15T00:32:44.708Z,28.13
2023-02-15T00:35:15.842Z,27.97
2023-02-15T00:37:47.062Z,27.13
2023-02-15T00:40:18.502Z,28.07
2023-02-15T00:42:49.233Z,28.07
2023-02-15T00:45:20.345Z,27.73
2023-02-15T00:47:50.874Z,27.98
2023-02-15T00:50:23.828Z,28.04
2023-02-15T00:52:55.478Z,27.76
2023-02-15T00:55:26.862Z,27.44
2023-02-15T00:57:57.810Z,26.48
2023-02-15T01:00:28.928Z,27.43
2023-02-15T01:03:00.967Z,27.54
2023-02-15T01:05:32.552Z,28.10
2023-02-15T01:08:04.216Z,28.01
2023-02-15T01:10:36.242Z,28.10
2023-02-15T01:13:07.831Z,27.58
2023-02-15T01:15:39.510Z,27.37
2023-02-15T01:18:10.989Z,28.09
2023-02-15T01:20:43.591Z,27.80
2023-02-15T01:23:14.580Z,27.42
2023-02-15T01:25:45.284Z,28.13
2023-02-15T01:28:16.691Z,28.46
2023-02-15T01:30:47.816Z,28.50
2023-02-15T01:33:20.856Z,28.04
2023-02-15T01:35:52.120Z,28.20
2023-02-15T01:38:22.757Z,29.17
2023-02-15T01:41:17.416Z,28.41
2023-02-15T01:43:51.391Z,28.01
2023-02-15T01:46:27.930Z,27.83
2023-02-15T01:49:06.989Z,27.77
2023-02-15T01:51:40.014Z,28.64
2023-02-15T01:54:27.069Z,28.35
2023-02-15T01:57:01.593Z,27.96
2023-02-15T01:59:35.508Z,28.05
2023-02-15T02:02:09.093Z,28.15
2023-02-15T02:04:52.069Z,27.90
2023-02-15T02:07:25.361Z,27.93
2023-02-15T02:09:56.840Z,27.77
2023-02-15T02:12:28.838Z,27.79
2023-02-15T02:15:00.334Z,27.99
2023-02-15T02:17:40.128Z,28.20
2023-02-15T02:20:39.096Z,27.00
2023-02-15T02:23:28.524Z,26.54
2023-02-15T02:26:36.247Z,27.24
2023-02-15T02:29:22.279Z,26.05
2023-02-15T02:32:25.441Z,25.79
2023-02-15T02:35:36.789Z,26.89
2023-02-15T02:38:16.934Z,27.09
2023-02-15T02:41:07.020Z,27.52
2023-02-15T02:44:16.584Z,27.68
2023-02-15T02:46:57.962Z,27.56
2023-02-15T02:49:38.304Z,27.81
2023-02-15T02:52:30.464Z,26.75
2023-02-15T02:55:02.666Z,26.64
2023-02-15T02:57:34.610Z,25.90
2023-02-15T03:00:10.891Z,26.91
2023-02-15T03:02:44.879Z,27.10
2023-02-15T03:05:19.503Z,27.02
2023-02-15T03:07:53.525Z,27.10
2023-02-15T03:10:26.217Z,27.47
2023-02-15T03:12:57.824Z,28.21
2023-02-15T03:15:53.300Z,27.24
2023-02-15T03:18:30.170Z,26.96
2023-02-15T03:21:05.154Z,26.45
2023-02-15T03:23:37.640Z,26.87
2023-02-15T03:26:11.216Z,26.96
2023-02-15T03:28:48.573Z,26.16
2023-02-15T03:31:21.224Z,26.78
2023-02-15T03:34:03.834Z,26.03
2023-02-15T03:36:40.367Z,26.55
2023-02-15T03:39:23.406Z,25.50
2023-02-15T03:42:07.155Z,26.74
2023-02-15T03:45:01.910Z,26.86
2023-02-15T03:47:41.297Z,26.82
2023-02-15T03:50:40.555Z,26.03
2023-02-15T03:53:15.550Z,25.47
2023-02-15T03:55:50.584Z,25.51
2023-02-15T03:58:39.704Z,24.95
2023-02-15T04:02:00.762Z,25.08
2023-02-15T04:04:45.060Z,25.16
2023-02-15T04:07:16.696Z,25.23
2023-02-15T04:10:05.432Z,25.47
2023-02-15T04:12:37.140Z,25.75
2023-02-15T04:15:27.149Z,25.68
2023-02-15T04:18:01.298Z,26.09
2023-02-15T04:20:50.812Z,25.48
2023-02-15T04:23:39.556Z,25.26
2023-02-15T04:26:11.555Z,25.39
2023-02-15T04:28:42.850Z,25.57
2023-02-15T04:31:14.055Z,25.37
2023-02-15T04:33:46.342Z,25.05
2023-02-15T04:36:17.655Z,24.59
2023-02-15T04:38:48.682Z,25.07
2023-02-15T04:41:19.707Z,25.01
2023-02-15T04:43:50.869Z,24.84
2023-02-15T04:46:22.273Z,24.87
2023-02-15T04:48:53.768Z,25.22
2023-02-15T04:51:24.715Z,25.12
2023-02-15T04:53:55.694Z,24.88
2023-02-15T04:56:27.056Z,24.62
2023-02-15T04:58:58.346Z,23.91
2023-02-15T05:01:29.701Z,24.29
2023-02-15T05:04:00.981Z,23.99
2023-02-15T05:06:32.446Z,23.34
2023-02-15T05:09:03.954Z,23.47
2023-02-15T05:11:35.540Z,23.43
2023-02-15T05:14:06.969Z,23.57
2023-02-15T05:16:38.810Z,23.49
2023-02-15T05:19:09.900Z,23.48
2023-02-15T05:21:40.956Z,23.18
2023-02-15T05:24:29.894Z,23.20
2023-02-15T05:27:20.126Z,23.22
2023-02-15T05:29:51.828Z,23.01
2023-02-15T05:32:22.537Z,23.08
2023-02-15T05:34:53.526Z,23.01
2023-02-15T05:37:24.644Z,22.81
2023-02-15T05:39:56.029Z,22.69
2023-02-15T05:42:27.012Z,22.78
2023-02-15T05:44:58.311Z,22.48
2023-02-15T05:47:29.560Z,22.56
2023-02-15T05:50:00.569Z,22.44
2023-02-15T05:52:33.420Z,22.27
2023-02-15T05:55:05.141Z,22.48
2023-02-15T05:57:36.354Z,22.42
2023-02-15T06:00:08.438Z,22.28
2023-02-15T06:02:42.685Z,22.38
2023-02-15T06:05:13.954Z,22.46
2023-02-15T06:07:49.629Z,22.21
2023-02-15T06:10:20.798Z,22.25
2023-02-15T06:12:52.083Z,22.04
2023-02-15T06:15:23.330Z,21.98
2023-02-15T06:17:54.836Z,22.22
2023-02-15T06:20:25.778Z,22.11
2023-02-15T06:22:56.732Z,21.99
2023-02-15T06:25:28.032Z,22.06
2023-02-15T06:28:00.144Z,21.81
2023-02-15T06:30:31.405Z,21.86
2023-02-15T06:33:02.480Z,21.85
2023-02-15T06:35:33.519Z,21.79
2023-02-15T06:38:05.049Z,21.60
2023-02-15T06:40:36.225Z,21.68
2023-02-15T06:43:07.376Z,21.51
2023-02-15T06:45:38.429Z,21.54
2023-02-15T06:48:10.556Z,21.54
2023-02-15T06:50:41.766Z,21.37
2023-02-15T06:53:13.198Z,21.36
2023-02-15T06:55:47.256Z,21.16
2023-02-15T06:58:18.347Z,21.21
2023-02-15T07:00:49.404Z,20.92
2023-02-15T07:03:20.727Z,20.99
2023-02-15T07:05:52.208Z,20.81
2023-02-15T07:08:23.398Z,20.86
2023-02-15T07:10:55.066Z,20.73
2023-02-15T07:13:26.196Z,20.67
2023-02-15T07:15:57.391Z,20.66
2023-02-15T07:18:31.099Z,20.75
2023-02-15T07:21:02.213Z,20.55
2023-02-15T07:23:33.397Z,20.55
2023-02-15T07:26:08.898Z,20.48
2023-02-15T07:28:40.884Z,20.43
2023-02-15T07:31:12.210Z,20.52
2023-02-15T07:33:43.070Z,20.56
2023-02-15T07:36:14.622Z,20.44
2023-02-15T07:38:51.747Z,20.49
2023-02-15T07:41:23.391Z,20.43
2023-02-15T07:43:54.886Z,20.22
2023-02-15T07:46:34.616Z,20.34
2023-02-15T07:49:06.243Z,20.14
2023-02-15T07:51:37.615Z,20.22
2023-02-15T07:54:08.838Z,20.23
2023-02-15T07:56:39.828Z,20.09
2023-02-15T07:59:11.561Z,20.24
2023-02-15T08:01:43.202Z,20.14
2023-02-15T08:04:14.526Z,20.20
2023-02-15T08:06:45.597Z,20.20
2023-02-15T08:09:16.691Z,20.32
2023-02-15T08:11:48.213Z,20.06
2023-02-15T08:14:25.681Z,19.92
2023-02-15T08:16:58.727Z,19.96
2023-02-15T08:19:31.997Z,19.96
2023-02-15T08:22:06.475Z,20.05
2023-02-15T08:24:40.091Z,19.97
2023-02-15T08:27:13.250Z,19.86
2023-02-15T08:29:45.445Z,19.92
2023-02-15T08:32:16.730Z,19.88
2023-02-15T08:34:47.903Z,19.84
2023-02-15T08:37:18.905Z,19.76
2023-02-15T08:39:49.837Z,19.75
2023-02-15T08:42:23.164Z,19.76
2023-02-15T08:44:54.200Z,19.74
2023-02-15T08:47:25.231Z,19.77
2023-02-15T08:49:56.537Z,19.73
2023-02-15T08:52:28.059Z,19.72
2023-02-15T08:54:58.996Z,19.54
2023-02-15T08:57:30.919Z,19.56
2023-02-15T09:00:01.266Z,19.63
2023-02-15T09:02:33.588Z,19.47
2023-02-15T09:05:05.349Z,19.47
2023-02-15T09:07:36.698Z,19.64
2023-02-15T09:10:08.594Z,19.57
2023-02-15T09:12:39.490Z,19.63
2023-02-15T09:15:10.851Z,19.47
2023-02-15T09:17:41.839Z,19.53
2023-02-15T09:20:13.342Z,19.64
2023-02-15T09:22:44.308Z,19.57
2023-02-15T09:25:16.155Z,19.40
2023-02-15T09:27:47.140Z,19.62
2023-02-15T09:30:18.169Z,19.49
2023-02-15T09:32:49.988Z,19.41
2023-02-15T09:35:21.162Z,19.43
2023-02-15T09:37:52.386Z,19.39
2023-02-15T09:40:23.791Z,19.40
2023-02-15T09:43:39.407Z,19.47
2023-02-15T09:46:23.782Z,19.36
2023-02-15T09:49:02.557Z,19.42
2023-02-15T09:51:48.713Z,19.33
2023-02-15T09:54:29.300Z,19.34
2023-02-15T09:57:08.414Z,19.23
2023-02-15T10:00:19.790Z,19.30
2023-02-15T10:03:06.827Z,19.11
2023-02-15T10:05:59.556Z,19.14
2023-02-15T10:08:51.537Z,19.13
2023-02-15T10:11:44.015Z,19.07
2023-02-15T10:14:43.192Z,19.03
2023-02-15T10:17:32.297Z,19.00
2023-02-15T10:20:32.536Z,18.94
2023-02-15T10:23:06.746Z,18.93
2023-02-15T10:26:05.367Z,18.83
2023-02-15T10:28:39.749Z,18.89
2023-02-15T10:31:18.506Z,18.86
2023-02-15T10:33:50.036Z,18.64
2023-02-15T10:36:38.138Z,18.81
2023-02-15T10:39:26.931Z,18.78
2023-02-15T10:42:37.966Z,18.82
2023-02-15T10:45:12.222Z,18.77
2023-02-15T10:47:55.222Z,18.73
2023-02-15T10:50:33.639Z,18.79
2023-02-15T10:53:17.593Z,18.76
2023-02-15T10:56:15.366Z,18.83
2023-02-15T10:59:07.724Z,18.78
2023-02-15T11:01:57.085Z,18.63
2023-02-15T11:04:43.539Z,18.74
2023-02-15T11:07:29.401Z,18.65
2023-02-15T11:10:46.367Z,18.51
2023-02-15T11:13:22.214Z,18.33
2023-02-15T11:16:08.646Z,18.33
2023-02-15T11:18:45.044Z,18.31
2023-02-15T11:21:54.355Z,18.33
2023-02-15T11:24:30.009Z,18.33
2023-02-15T11:27:23.692Z,18.38
2023-02-15T11:29:57.942Z,18.46
2023-02-15T11:32:42.205Z,18.16
2023-02-15T11:35:16.380Z,18.24
2023-02-15T11:38:18.025Z,18.35
2023-02-15T11:41:01.501Z,18.29
2023-02-15T11:44:21.854Z,18.33
2023-02-15T11:46:53.953Z,18.32
2023-02-15T11:49:35.111Z,18.08
2023-02-15T11:52:10.581Z,18.10
2023-02-15T11:54:54.108Z,18.20
2023-02-15T11:57:40.652Z,18.02
2023-02-15T12:00:18.954Z,17.96
2023-02-15T12:02:53.675Z,17.99
2023-02-15T12:05:27.012Z,18.06
2023-02-15T12:08:19.995Z,18.03
2023-02-15T12:11:01.092Z,18.08
2023-02-15T12:13:32.672Z,18.07
2023-02-15T12:16:09.949Z,18.08
2023-02-15T12:18:49.902Z,18.09
2023-02-15T12:21:44.063Z,18.03
2023-02-15T12:24:48.689Z,17.81
2023-02-15T12:27:46.404Z,17.61
2023-02-15T12:30:28.679Z,17.56
2023-02-15T12:33:02.781Z,17.51
2023-02-15T12:35:36.779Z,17.39
2023-02-15T12:38:13.783Z,17.12
2023-02-15T12:40:45.939Z,17.12
2023-02-15T12:43:36.813Z,17.42
2023-02-15T12:46:24.759Z,17.52
2023-02-15T12:49:22.620Z,17.59
2023-02-15T12:51:58.378Z,17.55
2023-02-15T12:54:44.366Z,17.60
2023-02-15T12:57:23.991Z,17.57
2023-02-15T13:00:03.197Z,17.68
2023-02-15T13:02:45.044Z,17.66
2023-02-15T13:05:26.101Z,17.60
2023-02-15T13:08:05.792Z,17.68
2023-02-15T13:11:04.069Z,17.66
2023-02-15T13:13:37.491Z,17.51
2023-02-15T13:16:14.673Z,17.47
2023-02-15T13:18:50.295Z,17.10
2023-02-15T13:21:31.341Z,17.14
2023-02-15T13:24:10.133Z,17.15
2023-02-15T13:26:43.143Z,17.08
2023-02-15T13:29:25.807Z,17.00
2023-02-15T13:31:58.289Z,17.14
2023-02-15T13:34:36.838Z,17.23
2023-02-15T13:37:35.081Z,17.01
2023-02-15T13:40:20.925Z,16.94
2023-02-15T13:43:22.171Z,16.93
2023-02-15T13:46:08.611Z,17.04
2023-02-15T13:48:50.781Z,17.01
2023-02-15T13:51:46.472Z,16.92
2023-02-15T13:54:46.068Z,17.06
2023-02-15T13:57:41.846Z,16.83
2023-02-15T14:00:24.568Z,16.83
2023-02-15T14:03:04.432Z,16.81
2023-02-15T14:05:53.402Z,16.63
2023-02-15T14:08:42.733Z,16.63
2023-02-15T14:11:35.251Z,16.66
2023-02-15T14:14:59.642Z,16.60
2023-02-15T14:17:43.044Z,16.76
2023-02-15T14:20:39.963Z,16.58
2023-02-15T14:23:26.307Z,16.52
2023-02-15T14:26:17.784Z,16.66
2023-02-15T14:29:06.671Z,16.67
2023-02-15T14:31:42.299Z,16.64
2023-02-15T14:34:27.109Z,16.67
2023-02-15T14:36:59.067Z,16.60
2023-02-15T14:39:51.028Z,16.50
2023-02-15T14:42:35.999Z,16.40
2023-02-15T14:45:26.356Z,16.45
2023-02-15T14:48:12.449Z,16.35
2023-02-15T14:50:48.568Z,16.54
2023-02-15T14:53:28.672Z,16.67
2023-02-15T14:56:23.106Z,16.71
2023-02-15T14:58:58.742Z,16.81
2023-02-15T15:01:33.833Z,16.80
2023-02-15T15:04:16.198Z,16.77
2023-02-15T15:06:47.696Z,16.62
2023-02-15T15:09:45.304Z,16.51
2023-02-15T15:12:25.334Z,16.56
2023-02-15T15:14:57.121Z,16.43
2023-02-15T15:17:40.461Z,16.54
2023-02-15T15:20:46.790Z,16.42
2023-02-15T15:23:18.351Z,16.28
2023-02-15T15:25:56.578Z,16.28
2023-02-15T15:28:36.908Z,16.29
2023-02-15T15:31:08.222Z,16.41
2023-02-15T15:33:50.776Z,16.45
2023-02-15T15:36:50.459Z,16.36
2023-02-15T15:39:43.375Z,16.52
2023-02-15T15:42:33.819Z,16.53
2023-02-15T15:45:45.795Z,16.47
2023-02-15T15:48:40.372Z,16.24
2023-02-15T15:51:17.725Z,16.23
2023-02-15T15:53:52.885Z,16.39
2023-02-15T15:56:35.618Z,16.33
2023-02-15T15:59:14.992Z,16.44
2023-02-15T16:01:47.820Z,16.35
2023-02-15T16:04:51.273Z,16.41
2023-02-15T16:07:22.555Z,16.42
2023-02-15T16:10:01.805Z,16.12
2023-02-15T16:12:37.345Z,16.12
2023-02-15T16:15:19.270Z,16.23
2023-02-15T16:17:58.815Z,16.19
2023-02-15T16:20:34.296Z,16.25
2023-02-15T16:23:05.278Z,16.33
2023-02-15T16:25:58.863Z,16.31
2023-02-15T16:28:30.401Z,16.24
2023-02-15T16:31:15.868Z,16.26
2023-02-15T16:33:47.989Z,16.34
2023-02-15T16:36:25.651Z,16.32
2023-02-15T16:38:59.917Z,16.32
2023-02-15T16:41:32.869Z,16.41
2023-02-15T16:44:15.730Z,16.31
2023-02-15T16:46:56.414Z,16.37
2023-02-15T16:49:30.081Z,16.53
2023-02-15T16:52:09.613Z,16.44
2023-02-15T16:54:40.716Z,16.54
2023-02-15T16:57:35.840Z,16.49
2023-02-15T17:00:18.119Z,16.59
2023-02-15T17:02:57.887Z,16.58
2023-02-15T17:05:43.536Z,16.58
2023-02-15T17:08:27.112Z,16.62
2023-02-15T17:11:23.731Z,16.61
2023-02-15T17:14:13.367Z,16.46
2023-02-15T17:16:51.420Z,16.54
2023-02-15T17:19:31.694Z,16.68
2023-02-15T17:22:05.970Z,16.77
2023-02-15T17:24:46.129Z,16.88
2023-02-15T17:27:20.368Z,16.90
2023-02-15T17:30:02.573Z,16.81
2023-02-15T17:32:36.814Z,16.73
2023-02-15T17:35:27.163Z,16.70
2023-02-15T17:38:30.534Z,16.69
2023-02-15T17:41:02.016Z,16.66
2023-02-15T17:43:33.678Z,16.54
2023-02-15T17:46:04.961Z,16.50
2023-02-15T17:48:38.714Z,16.54
2023-02-15T17:51:13.754Z,16.44
2023-02-15T17:54:04.400Z,16.48
2023-02-15T17:56:39.540Z,16.52
2023-02-15T17:59:12.898Z,16.55
2023-02-15T18:02:09.794Z,16.56
2023-02-15T18:04:59.034Z,16.58
2023-02-15T18:07:48.501Z,16.59
2023-02-15T18:10:39.503Z,16.51
2023-02-15T18:13:10.997Z,16.55
2023-02-15T18:15:42.386Z,16.44
2023-02-15T18:18:15.195Z,16.50
2023-02-15T18:20:46.688Z,16.55
2023-02-15T18:23:17.869Z,16.61
2023-02-15T18:25:49.412Z,16.50
2023-02-15T18:28:20.544Z,16.59
2023-02-15T18:30:53.847Z,16.67
2023-02-15T18:33:46.254Z,16.64
2023-02-15T18:36:24.745Z,16.67
2023-02-15T18:38:56.664Z,16.77
2023-02-15T18:41:31.180Z,16.82
2023-02-15T18:44:03.136Z,17.01
2023-02-15T18:46:34.291Z,16.88
2023-02-15T18:49:05.686Z,16.91
2023-02-15T18:51:41.429Z,16.89
2023-02-15T18:54:22.016Z,16.94
2023-02-15T18:57:03.111Z,16.87
2023-02-15T18:59:34.289Z,16.84
2023-02-15T19:02:05.557Z,16.76
2023-02-15T19:04:36.489Z,16.84
2023-02-15T19:07:07.574Z,16.87
2023-02-15T19:09:38.720Z,16.85
2023-02-15T19:12:14.113Z,16.79
2023-02-15T19:14:45.574Z,16.72
2023-02-15T19:17:22.247Z,16.72
2023-02-15T19:19:54.645Z,16.77
2023-02-15T19:22:36.354Z,16.76
2023-02-15T19:25:08.527Z,16.77
2023-02-15T19:27:39.803Z,16.78
2023-02-15T19:30:31.634Z,17.05
2023-02-15T19:33:04.209Z,17.13
2023-02-15T19:35:37.480Z,17.01
2023-02-15T19:38:14.058Z,17.18
2023-02-15T19:40:45.784Z,17.15
2023-02-15T19:43:23.190Z,17.35
2023-02-15T19:45:56.493Z,17.57
2023-02-15T19:48:27.763Z,17.34
2023-02-15T19:50:59.314Z,17.51
2023-02-15T19:53:31.837Z,17.75
2023-02-15T19:56:03.201Z,18.12
2023-02-15T19:58:35.227Z,18.19
2023-02-15T20:01:06.816Z,18.28
2023-02-15T20:03:38.339Z,18.68
2023-02-15T20:06:09.021Z,18.83
2023-02-15T20:08:40.223Z,19.22
2023-02-15T20:11:13.489Z,18.96
2023-02-15T20:13:44.497Z,19.07
2023-02-15T20:16:15.842Z,19.07
2023-02-15T20:18:47.937Z,19.16
2023-02-15T20:21:19.631Z,19.21
2023-02-15T20:23:50.689Z,19.70
2023-02-15T20:26:22.524Z,20.12
2023-02-15T20:28:53.083Z,20.68
2023-02-15T20:31:24.567Z,21.00
2023-02-15T20:33:55.519Z,21.11
2023-02-15T20:36:27.005Z,20.81
2023-02-15T20:38:59.401Z,20.71
2023-02-15T20:41:41.582Z,22.11
2023-02-15T20:44:26.952Z,22.19
2023-02-15T20:47:00.686Z,21.80
2023-02-15T20:49:32.036Z,22.22
2023-02-15T20:52:04.081Z,21.48
2023-02-15T20:54:36.961Z,21.89
2023-02-15T20:57:08.515Z,21.99
2023-02-15T20:59:39.889Z,22.26
2023-02-15T21:02:28.086Z,21.75
2023-02-15T21:04:59.550Z,22.55
2023-02-15T21:07:30.194Z,22.57
2023-02-15T21:10:01.734Z,22.77
2023-02-15T21:12:33.858Z,22.67
2023-02-15T21:15:04.842Z,22.76
2023-02-15T21:17:35.845Z,22.50
2023-02-15T21:20:07.218Z,23.22
2023-02-15T21:22:38.619Z,22.60
2023-02-15T21:25:12.021Z,22.76
2023-02-15T21:27:43.841Z,22.87
2023-02-15T21:30:19.686Z,23.05
2023-02-15T21:32:51.062Z,23.53
2023-02-15T21:35:23.026Z,24.33
2023-02-15T21:37:55.274Z,24.05
2023-02-15T21:40:30.212Z,24.94
2023-02-15T21:43:19.352Z,25.28
2023-02-15T21:46:08.377Z,24.19
2023-02-15T21:48:40.538Z,25.16
2023-02-15T21:51:29.877Z,24.80
2023-02-15T21:54:01.286Z,25.02
2023-02-15T21:56:32.488Z,24.69
2023-02-15T21:59:03.790Z,25.64
2023-02-15T22:01:35.248Z,26.26
2023-02-15T22:04:06.610Z,26.09
2023-02-15T22:06:38.222Z,27.03
2023-02-15T22:09:20.735Z,26.93
2023-02-15T22:11:52.704Z,25.44
2023-02-15T22:14:39.926Z,26.59
2023-02-15T22:17:36.064Z,27.54
2023-02-15T22:20:18.720Z,27.26
2023-02-15T22:22:50.868Z,28.17
2023-02-15T22:25:27.408Z,26.97
2023-02-15T22:27:58.950Z,27.28
2023-02-15T22:30:31.270Z,27.64
2023-02-15T22:33:03.142Z,27.43
2023-02-15T22:35:36.141Z,27.30
2023-02-15T22:38:07.717Z,26.62
2023-02-15T22:40:39.244Z,27.31
2023-02-15T22:43:22.258Z,27.62
2023-02-15T22:45:53.474Z,27.30
2023-02-15T22:48:24.556Z,27.34
2023-02-15T22:50:56.171Z,27.76
2023-02-15T22:53:27.717Z,27.54
2023-02-15T22:55:59.978Z,27.87
2023-02-15T22:58:31.609Z,27.37
2023-02-15T23:01:03.947Z,26.68
2023-02-15T23:03:35.353Z,26.00
2023-02-15T23:06:06.838Z,27.84
2023-02-15T23:08:38.183Z,28.09
2023-02-15T23:11:12.806Z,29.07
2023-02-15T23:13:44.001Z,28.45
2023-02-15T23:16:19.602Z,28.34
2023-02-15T23:18:51.483Z,28.71
2023-02-15T23:21:24.124Z,27.85
2023-02-15T23:23:58.078Z,27.23
2023-02-15T23:26:32.520Z,27.03
2023-02-15T23:29:05.611Z,27.31
2023-02-15T23:31:46.840Z,28.59
2023-02-15T23:34:24.319Z,29.51
2023-02-15T23:36:55.856Z,28.70
2023-02-15T23:39:46.053Z,27.76
2023-02-15T23:42:29.363Z,29.27
2023-02-15T23:45:00.476Z,28.71
2023-02-15T23:47:56.049Z,28.06
2023-02-15T23:50:33.006Z,28.19
2023-02-15T23:53:05.677Z,27.79
2023-02-15T23:55:43.124Z,26.83
2023-02-15T23:58:26.293Z,26.92
